createdAt,value
2018-12-19T00:01:14.036Z,0.50
2018-12-19T00:03:43.918Z,0.40
2018-12-19T00:06:13.504Z,0.50
2018-12-19T00:08:43.049Z,0.40
2018-12-19T00:11:13.853Z,0.40
2018-12-19T00:13:43.360Z,0.40
2018-12-19T00:16:12.927Z,0.40
2018-12-19T00:18:43.070Z,0.30
2018-12-19T00:21:13.586Z,0.30
2018-12-19T00:23:43.184Z,0.20
2018-12-19T00:26:12.930Z,0.30
2018-12-19T00:28:42.591Z,0.30
2018-12-19T00:31:13.162Z,0.30
2018-12-19T00:33:43.286Z,0.30
2018-12-19T00:36:12.858Z,0.30
2018-12-19T00:38:42.432Z,0.30
2018-12-19T00:41:12.673Z,0.20
2018-12-19T00:43:42.418Z,0.20
2018-12-19T00:46:12.017Z,0.20
2018-12-19T00:48:42.340Z,0.20
2018-12-19T00:51:12.660Z,0.20
2018-12-19T00:53:42.229Z,0.20
2018-12-19T00:56:11.809Z,0.20
2018-12-19T00:58:41.679Z,0.20
2018-12-19T01:01:11.835Z,0.30
2018-12-19T01:03:42.735Z,0.30
2018-12-19T01:06:12.531Z,0.30
2018-12-19T01:08:42.249Z,0.20
2018-12-19T01:11:12.987Z,0.20
2018-12-19T01:13:42.637Z,0.20
2018-12-19T01:16:12.314Z,0.10
2018-12-19T01:18:42.605Z,0.10
2018-12-19T01:21:13.097Z,0.10
2018-12-19T01:23:42.782Z,0.10
2018-12-19T01:26:12.406Z,0.20
2018-12-19T01:28:42.409Z,0.20
2018-12-19T01:31:12.677Z,0.10
2018-12-19T01:33:42.986Z,0.10
2018-12-19T01:36:12.760Z,0.10
2018-12-19T01:38:42.364Z,0.10
2018-12-19T01:41:12.420Z,0.10
2018-12-19T01:43:42.523Z,0.10
2018-12-19T01:46:12.177Z,0.10
2018-12-19T01:48:42.453Z,0.10
2018-12-19T01:51:12.560Z,0.10
2018-12-19T01:53:42.380Z,0.10
2018-12-19T01:56:11.930Z,0.10
2018-12-19T01:58:41.833Z,0.00
2018-12-19T02:01:12.035Z,0.00
2018-12-19T02:03:42.396Z,0.00
2018-12-19T02:06:12.028Z,0.10
2018-12-19T02:08:42.112Z,0.00
2018-12-19T02:11:12.869Z,0.00
2018-12-19T02:13:43.076Z,0.00
2018-12-19T02:16:12.713Z,0.00
2018-12-19T02:18:42.936Z,0.00
2018-12-19T02:21:12.733Z,0.00
2018-12-19T02:23:42.375Z,0.00
2018-12-19T02:26:11.954Z,0.00
2018-12-19T02:28:41.989Z,-0.10
2018-12-19T02:31:11.856Z,-0.10
2018-12-19T02:33:42.794Z,-0.10
2018-12-19T02:36:12.389Z,-0.10
2018-12-19T02:38:41.972Z,-0.10
2018-12-19T02:41:11.928Z,-0.20
2018-12-19T02:43:41.992Z,-0.20
2018-12-19T02:46:11.632Z,-0.20
2018-12-19T02:48:42.246Z,-0.10
2018-12-19T02:51:12.126Z,-0.10
2018-12-19T02:53:41.721Z,-0.10
2018-12-19T02:56:11.386Z,-0.20
2018-12-19T02:58:41.582Z,-0.20
2018-12-19T03:01:11.528Z,-0.20
2018-12-19T03:03:41.998Z,-0.20
2018-12-19T03:06:11.925Z,-0.20
2018-12-19T03:08:42.027Z,-0.20
2018-12-19T03:11:12.705Z,-0.20
2018-12-19T03:13:42.715Z,-0.30
2018-12-19T03:16:12.357Z,-0.20
2018-12-19T03:18:42.835Z,-0.20
2018-12-19T03:21:12.564Z,-0.20
2018-12-19T03:23:42.196Z,-0.30
2018-12-19T03:26:17.878Z,-0.20
2018-12-19T03:28:48.820Z,-0.20
2018-12-19T03:31:18.451Z,-0.20
2018-12-19T03:33:48.249Z,-0.30
2018-12-19T03:36:17.896Z,-0.30
2018-12-19T03:38:47.521Z,-0.30
2018-12-19T03:41:17.090Z,-0.30
2018-12-19T03:43:46.719Z,-0.30
2018-12-19T03:46:16.305Z,-0.30
2018-12-19T03:48:51.075Z,-0.20
2018-12-19T03:51:20.798Z,-0.30
2018-12-19T03:53:50.470Z,-0.30
2018-12-19T03:56:20.136Z,-0.30
2018-12-19T03:58:49.726Z,-0.20
2018-12-19T04:01:19.789Z,-0.20
2018-12-19T04:03:49.396Z,-0.30
2018-12-19T04:06:19.181Z,-0.40
2018-12-19T04:08:48.862Z,-0.40
2018-12-19T04:11:25.206Z,-0.40
2018-12-19T04:13:54.797Z,-0.40
2018-12-19T04:16:24.450Z,-0.30
2018-12-19T04:18:57.004Z,-0.30
2018-12-19T04:21:26.618Z,-0.30
2018-12-19T04:23:56.350Z,-0.30
2018-12-19T04:26:25.962Z,-0.20
2018-12-19T04:28:55.568Z,-0.20
2018-12-19T04:31:25.194Z,-0.30
2018-12-19T04:33:54.807Z,-0.30
2018-12-19T04:36:24.532Z,-0.30
2018-12-19T04:38:54.298Z,-0.30
2018-12-19T04:41:23.940Z,-0.20
2018-12-19T04:43:53.634Z,-0.20
2018-12-19T04:46:29.850Z,-0.20
2018-12-19T04:48:59.546Z,-0.20
2018-12-19T04:51:29.187Z,-0.20
2018-12-19T04:53:58.989Z,-0.20
2018-12-19T04:56:28.638Z,-0.30
2018-12-19T04:58:58.294Z,-0.20
2018-12-19T05:01:28.648Z,-0.30
2018-12-19T05:03:58.441Z,-0.20
2018-12-19T05:06:28.040Z,-0.20
2018-12-19T05:08:57.749Z,-0.30
2018-12-19T05:11:27.474Z,-0.30
2018-12-19T05:13:57.117Z,-0.40
2018-12-19T05:16:26.797Z,-0.40
2018-12-19T05:18:56.392Z,-0.40
2018-12-19T05:21:25.997Z,-0.40
2018-12-19T05:23:55.623Z,-0.40
2018-12-19T05:26:25.221Z,-0.40
2018-12-19T05:28:54.823Z,-0.50
2018-12-19T05:31:24.532Z,-0.50
2018-12-19T05:33:54.213Z,-0.50
2018-12-19T05:36:23.829Z,-0.60
2018-12-19T05:38:54.225Z,-0.60
2018-12-19T05:41:23.823Z,-0.60
2018-12-19T05:43:53.440Z,-0.60
2018-12-19T05:46:23.030Z,-0.70
2018-12-19T05:48:52.655Z,-0.70
2018-12-19T05:51:22.247Z,-0.60
2018-12-19T05:53:51.859Z,-0.70
2018-12-19T05:56:22.213Z,-0.70
2018-12-19T05:58:51.842Z,-0.80
2018-12-19T06:01:21.525Z,-0.70
2018-12-19T06:03:51.396Z,-0.70
2018-12-19T06:06:22.336Z,-0.80
2018-12-19T06:08:52.356Z,-0.70
2018-12-19T06:11:23.381Z,-0.70
2018-12-19T06:13:53.286Z,-0.70
2018-12-19T06:16:23.427Z,-0.70
2018-12-19T06:21:35.089Z,-0.80
2018-12-19T06:24:04.753Z,-0.90
2018-12-19T06:26:34.870Z,-0.90
2018-12-19T06:29:04.791Z,-0.90
2018-12-19T06:31:35.470Z,-0.90
2018-12-19T06:34:05.332Z,-0.90
2018-12-19T06:36:34.980Z,-0.90
2018-12-19T06:39:07.601Z,-0.90
2018-12-19T06:41:37.242Z,-1.00
2018-12-19T06:44:06.931Z,-1.00
2018-12-19T06:46:37.387Z,-1.00
2018-12-19T06:49:07.021Z,-1.00
2018-12-19T06:51:36.654Z,-1.00
2018-12-19T06:54:06.331Z,-1.00
2018-12-19T06:56:35.948Z,-1.00
2018-12-19T06:59:05.761Z,-0.90
2018-12-19T07:01:35.520Z,-0.90
2018-12-19T07:04:05.144Z,-0.90
2018-12-19T07:06:34.760Z,-0.90
2018-12-19T07:09:07.207Z,-0.80
2018-12-19T07:11:36.934Z,-0.80
2018-12-19T07:14:06.545Z,-0.90
2018-12-19T07:16:36.435Z,-0.90
2018-12-19T07:19:06.012Z,-0.90
2018-12-19T07:21:35.710Z,-1.00
2018-12-19T07:24:05.566Z,-1.00
2018-12-19T07:26:35.390Z,-1.10
2018-12-19T07:29:05.060Z,-1.00
2018-12-19T07:31:35.433Z,-1.00
2018-12-19T07:34:05.144Z,-1.10
2018-12-19T07:36:34.852Z,-1.00
2018-12-19T07:39:07.213Z,-1.00
2018-12-19T07:41:36.946Z,-1.00
2018-12-19T07:44:06.538Z,-1.00
2018-12-19T07:46:36.516Z,-1.00
2018-12-19T07:49:06.187Z,-1.00
2018-12-19T07:51:35.756Z,-1.00
2018-12-19T07:54:05.503Z,-1.00
2018-12-19T07:56:35.096Z,-1.00
2018-12-19T07:59:04.830Z,-0.90
2018-12-19T08:01:34.471Z,-0.80
2018-12-19T08:04:04.331Z,-0.80
2018-12-19T08:06:33.944Z,-0.80
2018-12-19T08:09:04.930Z,-0.80
2018-12-19T08:11:35.318Z,-0.70
2018-12-19T08:14:06.066Z,-0.70
2018-12-19T08:16:35.888Z,-0.70
2018-12-19T08:19:05.647Z,-0.70
2018-12-19T08:21:35.316Z,-0.70
2018-12-19T08:24:05.102Z,-0.70
2018-12-19T08:26:34.750Z,-0.70
2018-12-19T08:29:04.478Z,-0.70
2018-12-19T08:31:34.164Z,-0.60
2018-12-19T08:34:03.914Z,-0.60
2018-12-19T08:36:33.601Z,-0.40
2018-12-19T08:39:03.602Z,-0.50
2018-12-19T08:41:33.309Z,-0.50
2018-12-19T08:44:05.766Z,-0.30
2018-12-19T08:46:35.630Z,-0.30
2018-12-19T08:49:05.274Z,-0.40
2018-12-19T08:51:34.872Z,-0.30
2018-12-19T08:54:04.469Z,-0.20
2018-12-19T08:56:34.114Z,-0.30
2018-12-19T08:59:03.692Z,-0.20
2018-12-19T09:01:33.337Z,-0.20
2018-12-19T09:04:03.162Z,-0.10
2018-12-19T09:06:32.808Z,-0.20
2018-12-19T09:09:02.452Z,-0.10
2018-12-19T09:11:32.655Z,-0.10
2018-12-19T09:14:02.251Z,-0.10
2018-12-19T09:16:31.892Z,0.00
2018-12-19T09:19:01.533Z,0.10
2018-12-19T09:21:31.137Z,0.10
2018-12-19T09:24:00.776Z,0.00
2018-12-19T09:26:30.382Z,0.10
2018-12-19T09:29:00.038Z,0.10
2018-12-19T09:31:29.620Z,0.20
2018-12-19T09:33:59.173Z,0.30
2018-12-19T09:36:28.760Z,0.20
2018-12-19T09:38:58.359Z,0.20
2018-12-19T09:41:27.930Z,0.40
2018-12-19T09:43:57.505Z,0.40
2018-12-19T09:46:27.872Z,0.30
2018-12-19T09:48:57.543Z,0.40
2018-12-19T09:51:27.291Z,0.50
2018-12-19T09:53:57.111Z,0.50
2018-12-19T09:56:26.696Z,0.50
2018-12-19T09:58:56.315Z,0.40
2018-12-19T10:01:26.284Z,0.40
2018-12-19T10:03:55.930Z,0.40
2018-12-19T10:06:25.677Z,0.40
2018-12-19T10:08:55.277Z,0.40
2018-12-19T10:11:26.135Z,0.30
2018-12-19T10:13:55.995Z,0.30
2018-12-19T10:16:25.879Z,0.30
2018-12-19T10:18:56.924Z,0.40
2018-12-19T10:21:29.212Z,0.40
2018-12-19T10:24:00.113Z,0.50
2018-12-19T10:26:30.481Z,0.50
2018-12-19T10:29:11.851Z,0.50
2018-12-19T10:31:43.175Z,0.60
2018-12-19T10:34:13.338Z,0.60
2018-12-19T10:36:44.848Z,0.50
2018-12-19T10:39:18.329Z,0.50
2018-12-19T10:42:15.021Z,0.50
2018-12-19T10:44:51.928Z,0.50
2018-12-19T10:47:37.858Z,0.50
2018-12-19T10:50:11.332Z,0.50
2018-12-19T10:52:52.873Z,0.50
2018-12-19T10:55:31.678Z,0.50
2018-12-19T10:58:11.836Z,0.60
2018-12-19T11:01:27.795Z,0.60
2018-12-19T11:03:57.950Z,0.60
2018-12-19T11:06:35.430Z,0.60
2018-12-19T11:09:07.852Z,0.60
2018-12-19T11:11:37.899Z,0.70
2018-12-19T11:14:08.029Z,0.70
2018-12-19T11:16:38.194Z,0.70
2018-12-19T11:19:07.849Z,0.80
2018-12-19T11:21:38.342Z,0.80
2018-12-19T11:24:08.214Z,0.80
2018-12-19T11:26:38.108Z,0.80
2018-12-19T11:29:07.859Z,0.70
2018-12-19T11:31:37.941Z,0.80
2018-12-19T11:34:08.257Z,0.90
2018-12-19T11:36:38.473Z,1.00
2018-12-19T11:39:09.119Z,0.90
2018-12-19T11:41:39.357Z,1.00
2018-12-19T11:44:09.404Z,0.90
2018-12-19T11:46:40.208Z,0.90
2018-12-19T11:49:09.834Z,0.90
2018-12-19T11:51:40.360Z,0.90
2018-12-19T11:54:09.970Z,1.00
2018-12-19T11:56:47.170Z,0.90
2018-12-19T11:59:16.814Z,0.90
2018-12-19T12:01:46.477Z,1.00
2018-12-19T12:04:16.068Z,0.90
2018-12-19T12:06:45.769Z,0.90
2018-12-19T12:09:15.883Z,1.00
2018-12-19T12:11:46.002Z,1.00
2018-12-19T12:14:15.647Z,0.90
2018-12-19T12:16:45.442Z,0.90
2018-12-19T12:19:15.396Z,0.90
2018-12-19T12:21:45.554Z,0.90
2018-12-19T12:24:15.496Z,1.00
2018-12-19T12:26:45.211Z,0.90
2018-12-19T12:29:15.327Z,1.00
2018-12-19T12:31:45.633Z,1.10
2018-12-19T12:34:15.807Z,1.00
2018-12-19T12:36:45.746Z,1.00
2018-12-19T12:39:15.730Z,1.10
2018-12-19T12:41:52.142Z,1.20
2018-12-19T12:44:17.653Z,1.20
2018-12-19T12:46:47.658Z,1.20
2018-12-19T12:49:17.590Z,1.30
2018-12-19T12:51:47.521Z,1.20
2018-12-19T12:54:17.493Z,1.30
2018-12-19T12:56:47.453Z,1.30
2018-12-19T12:59:17.787Z,1.20
2018-12-19T13:01:47.434Z,1.20
2018-12-19T13:04:17.094Z,1.30
2018-12-19T13:06:46.913Z,1.30
2018-12-19T13:09:16.625Z,1.30
2018-12-19T13:11:46.728Z,1.30
2018-12-19T13:14:16.925Z,1.30
2018-12-19T13:16:47.172Z,1.30
2018-12-19T13:19:17.222Z,1.30
2018-12-19T13:21:47.235Z,1.40
2018-12-19T13:24:16.949Z,1.50
2018-12-19T13:26:46.623Z,1.50
2018-12-19T13:29:16.292Z,1.50
2018-12-19T13:31:46.387Z,1.50
2018-12-19T13:34:15.980Z,1.40
2018-12-19T13:36:45.685Z,1.50
2018-12-19T13:39:15.251Z,1.40
2018-12-19T13:41:44.836Z,1.50
2018-12-19T13:44:16.165Z,1.40
2018-12-19T13:46:46.121Z,1.30
2018-12-19T13:49:15.778Z,1.40
2018-12-19T13:51:45.522Z,1.40
2018-12-19T13:54:15.160Z,1.40
2018-12-19T13:56:44.789Z,1.40
2018-12-19T13:59:14.448Z,1.40
2018-12-19T14:01:44.723Z,1.40
2018-12-19T14:04:14.489Z,1.40
2018-12-19T14:06:44.370Z,1.40
2018-12-19T14:09:15.025Z,1.40
2018-12-19T14:11:44.867Z,1.40
2018-12-19T14:14:21.594Z,1.30
2018-12-19T14:16:51.245Z,1.30
2018-12-19T14:19:20.813Z,1.40
2018-12-19T14:21:50.409Z,1.30
2018-12-19T14:24:20.001Z,1.50
2018-12-19T14:26:49.758Z,1.40
2018-12-19T14:29:19.790Z,1.40
2018-12-19T14:31:49.811Z,1.40
2018-12-19T14:34:19.496Z,1.40
2018-12-19T14:36:49.388Z,1.50
2018-12-19T14:39:19.021Z,1.50
2018-12-19T14:41:48.634Z,1.40
2018-12-19T14:44:18.236Z,1.40
2018-12-19T14:46:47.921Z,1.40
2018-12-19T14:49:17.570Z,1.40
2018-12-19T14:51:47.217Z,1.40
2018-12-19T14:54:16.830Z,1.40
2018-12-19T14:56:46.431Z,1.30
2018-12-19T14:59:16.044Z,1.50
2018-12-19T15:01:45.980Z,1.40
2018-12-19T15:04:15.931Z,1.50
2018-12-19T15:06:45.694Z,1.40
2018-12-19T15:09:16.050Z,1.40
2018-12-19T15:11:45.804Z,1.40
2018-12-19T15:14:16.273Z,1.40
2018-12-19T15:16:46.109Z,1.30
2018-12-19T15:19:15.714Z,1.30
2018-12-19T15:21:46.283Z,1.40
2018-12-19T15:24:15.924Z,1.50
2018-12-19T15:26:46.217Z,1.50
2018-12-19T15:29:16.832Z,1.60
2018-12-19T15:31:46.797Z,1.60
2018-12-19T15:34:16.489Z,1.60
2018-12-19T15:36:46.765Z,1.70
2018-12-19T15:39:16.495Z,1.60
2018-12-19T15:41:46.238Z,1.50
2018-12-19T15:44:15.860Z,1.50
2018-12-19T15:46:46.333Z,1.60
2018-12-19T15:49:15.956Z,1.60
2018-12-19T15:51:45.969Z,1.60
2018-12-19T15:54:15.510Z,1.60
2018-12-19T15:56:45.859Z,1.50
2018-12-19T15:59:15.589Z,1.50
2018-12-19T16:01:46.079Z,1.60
2018-12-19T16:04:15.828Z,1.70
2018-12-19T16:06:48.727Z,1.70
2018-12-19T16:09:18.617Z,1.60
2018-12-19T16:11:48.808Z,1.60
2018-12-19T16:14:18.420Z,1.70
2018-12-19T16:16:48.628Z,1.80
2018-12-19T16:19:19.242Z,1.70
2018-12-19T16:21:49.863Z,1.70
2018-12-19T16:24:19.629Z,1.60
2018-12-19T16:26:49.978Z,1.60
2018-12-19T16:29:19.771Z,1.60
2018-12-19T16:31:49.998Z,1.80
2018-12-19T16:37:31.055Z,1.70
2018-12-19T16:40:00.926Z,1.70
2018-12-19T16:42:30.533Z,1.80
2018-12-19T16:45:00.159Z,1.80
2018-12-19T16:47:29.760Z,1.70
2018-12-19T16:49:59.456Z,1.80
2018-12-19T16:52:29.566Z,1.80
2018-12-19T16:54:59.190Z,1.70
2018-12-19T16:57:29.512Z,1.70
2018-12-19T16:59:59.165Z,1.70
2018-12-19T17:02:28.777Z,1.80
2018-12-19T17:04:58.393Z,1.70
2018-12-19T17:07:28.304Z,1.60
2018-12-19T17:09:58.002Z,1.60
2018-12-19T17:12:27.925Z,1.70
2018-12-19T17:14:57.487Z,1.60
2018-12-19T17:17:27.948Z,1.60
2018-12-19T17:19:57.612Z,1.70
2018-12-19T17:22:28.049Z,1.80
2018-12-19T17:24:57.652Z,1.80
2018-12-19T17:27:28.057Z,1.70
2018-12-19T17:29:57.721Z,1.70
2018-12-19T17:32:28.041Z,1.70
2018-12-19T17:34:57.931Z,1.80
2018-12-19T17:37:28.746Z,1.90
2018-12-19T17:39:58.638Z,1.90
2018-12-19T17:42:29.424Z,1.80
2018-12-19T17:44:59.234Z,1.80
2018-12-19T17:47:29.971Z,1.70
2018-12-19T17:49:59.600Z,1.70
2018-12-19T17:52:30.761Z,1.70
2018-12-19T17:55:01.003Z,1.80
2018-12-19T17:57:30.909Z,1.70
2018-12-19T18:00:00.555Z,1.90
2018-12-19T18:02:31.519Z,1.80
2018-12-19T18:05:01.455Z,1.80
2018-12-19T18:07:31.433Z,1.80
2018-12-19T18:10:01.591Z,2.00
2018-12-19T18:12:31.832Z,2.10
2018-12-19T18:15:01.911Z,2.10
2018-12-19T18:17:32.233Z,2.00
2018-12-19T18:20:02.175Z,2.10
2018-12-19T18:22:32.217Z,2.10
2018-12-19T18:25:02.162Z,2.00
2018-12-19T18:27:32.405Z,1.90
2018-12-19T18:30:03.429Z,2.00
2018-12-19T18:32:33.345Z,1.90
2018-12-19T18:35:03.386Z,2.10
2018-12-19T18:37:33.545Z,2.10
2018-12-19T18:40:03.493Z,2.00
2018-12-19T18:42:33.819Z,2.00
2018-12-19T18:45:04.361Z,2.00
2018-12-19T18:47:34.431Z,2.00
2018-12-19T18:50:06.892Z,2.00
2018-12-19T18:52:38.344Z,2.10
2018-12-19T18:55:09.635Z,2.10
2018-12-19T18:57:41.026Z,2.10
2018-12-19T19:00:11.478Z,2.20
2018-12-19T19:02:41.428Z,2.00
2018-12-19T19:05:14.738Z,2.10
2018-12-19T19:07:45.524Z,2.20
2018-12-19T19:10:15.316Z,2.20
2018-12-19T19:12:46.295Z,2.10
2018-12-19T19:15:16.087Z,2.10
2018-12-19T19:17:45.860Z,2.20
2018-12-19T19:20:15.505Z,2.20
2018-12-19T19:22:45.955Z,2.10
2018-12-19T19:25:27.630Z,2.00
2018-12-19T19:27:58.045Z,2.00
2018-12-19T19:30:33.139Z,2.20
2018-12-19T19:35:56.051Z,2.20
2018-12-19T19:38:27.524Z,2.20
2018-12-19T19:40:57.431Z,2.20
2018-12-19T19:43:27.099Z,2.20
2018-12-19T19:45:56.960Z,2.20
2018-12-19T19:48:26.921Z,2.20
2018-12-19T19:50:56.530Z,2.20
2018-12-19T19:53:26.322Z,2.30
2018-12-19T19:55:56.002Z,2.20
2018-12-19T19:58:27.069Z,2.20
2018-12-19T20:00:56.977Z,2.20
2018-12-19T20:03:27.568Z,2.20
2018-12-19T20:05:57.651Z,2.30
2018-12-19T20:08:27.606Z,2.20
2018-12-19T20:10:58.626Z,2.30
2018-12-19T20:13:33.180Z,2.20
2018-12-19T20:16:00.969Z,2.20
2018-12-19T20:18:37.466Z,2.20
2018-12-19T20:21:07.285Z,2.20
2018-12-19T20:23:37.152Z,2.10
2018-12-19T20:26:25.624Z,2.20
2018-12-19T20:29:07.657Z,2.20
2018-12-19T20:31:49.306Z,2.10
2018-12-19T20:34:26.226Z,2.10
2018-12-19T20:37:12.677Z,2.20
2018-12-19T20:39:56.017Z,2.30
2018-12-19T20:42:39.707Z,2.20
2018-12-19T20:45:21.317Z,2.20
2018-12-19T20:48:04.185Z,2.20
2018-12-19T20:50:45.030Z,2.20
2018-12-19T20:53:26.417Z,2.20
2018-12-19T20:56:08.336Z,2.30
2018-12-19T20:58:52.337Z,2.30
2018-12-19T21:01:31.842Z,2.30
2018-12-19T21:04:14.416Z,2.30
2018-12-19T21:06:54.728Z,2.30
2018-12-19T21:09:33.946Z,2.30
2018-12-19T21:12:04.083Z,2.30
2018-12-19T21:14:35.435Z,2.30
2018-12-19T21:20:39.543Z,2.40
2018-12-19T21:25:54.956Z,2.40
2018-12-19T21:28:24.619Z,2.50
2018-12-19T21:30:54.209Z,2.40
2018-12-19T21:33:24.440Z,2.30
2018-12-19T21:35:55.318Z,2.30
2018-12-19T21:38:24.963Z,2.30
2018-12-19T21:40:54.906Z,2.20
2018-12-19T21:43:24.606Z,2.10
2018-12-19T21:45:54.747Z,2.20
2018-12-19T21:48:24.377Z,2.30
2018-12-19T21:50:54.271Z,2.20
2018-12-19T21:53:24.121Z,2.20
2018-12-19T21:55:54.318Z,2.20
2018-12-19T21:58:24.191Z,2.30
2018-12-19T22:00:54.151Z,2.30
2018-12-19T22:03:24.049Z,2.40
2018-12-19T22:05:53.841Z,2.50
2018-12-19T22:08:23.603Z,2.40
2018-12-19T22:10:53.539Z,2.40
2018-12-19T22:13:23.383Z,2.40
2018-12-19T22:15:53.481Z,2.40
2018-12-19T22:18:28.615Z,2.40
2018-12-19T22:20:58.548Z,2.40
2018-12-19T22:23:29.067Z,2.40
2018-12-19T22:25:59.325Z,2.30
2018-12-19T22:28:29.681Z,2.30
2018-12-19T22:30:59.871Z,2.30
2018-12-19T22:33:29.772Z,2.20
2018-12-19T22:35:59.571Z,2.20
2018-12-19T22:38:29.305Z,2.40
2018-12-19T22:40:58.964Z,2.30
2018-12-19T22:43:28.538Z,2.30
2018-12-19T22:45:58.265Z,2.40
2018-12-19T22:48:27.909Z,2.30
2018-12-19T22:50:57.616Z,2.30
2018-12-19T22:53:27.281Z,2.30
2018-12-19T22:55:56.894Z,2.30
2018-12-19T22:58:26.518Z,2.30
2018-12-19T23:01:01.731Z,2.20
2018-12-19T23:03:36.762Z,2.30
2018-12-19T23:06:06.344Z,2.30
2018-12-19T23:08:35.953Z,2.20
2018-12-19T23:11:05.739Z,2.30
2018-12-19T23:13:35.355Z,2.30
2018-12-19T23:16:05.014Z,2.30
2018-12-19T23:18:34.745Z,2.30
2018-12-19T23:21:04.425Z,2.20
2018-12-19T23:23:34.231Z,2.30
2018-12-19T23:26:04.512Z,2.30
2018-12-19T23:28:34.165Z,2.20
2018-12-19T23:31:04.017Z,2.20
2018-12-19T23:33:33.971Z,2.30
2018-12-19T23:36:03.695Z,2.30
2018-12-19T23:38:33.396Z,2.30
2018-12-19T23:41:03.086Z,2.40
2018-12-19T23:43:32.749Z,2.30
2018-12-19T23:46:02.565Z,2.40
2018-12-19T23:48:32.380Z,2.40
2018-12-19T23:51:02.018Z,2.40
2018-12-19T23:53:31.710Z,2.30
2018-12-19T23:56:01.351Z,2.40
2018-12-19T23:58:31.061Z,2.40
